Time;durP1;ratioP1;P1;durP2;ratioP2;P2;SDS_P1;SDS_P2;PMS_P1;PMS_P2;Temp;Humidity;BMP_temperature;BMP_pressure;BME280_temperature;BME280_humidity;BME280_pressure;Samples;Min_cycle;Max_cycle;Signal;HPM_P1;HPM_P2
2022/08/16 00:01:19;;;;;;;10.93;8.30;;;;;;;22.18;57.70;100213.47;5062179;28;20101;-56
2022/08/16 00:03:45;;;;;;;11.20;8.38;;;;;;;22.18;58.80;100218.75;5064401;28;20284;-56
2022/08/16 00:06:12;;;;;;;15.93;8.65;;;;;;;22.19;57.61;100225.72;5066366;28;20036;-56
2022/08/16 00:08:37;;;;;;;12.65;7.75;;;;;;;22.27;58.06;100227.03;5064102;28;20025;-55
2022/08/16 00:11:10;;;;;;;10.20;8.00;;;;;;;21.98;57.98;100184.84;5061186;28;20071;-54
2022/08/16 00:13:35;;;;;;;10.57;8.38;;;;;;;22.28;57.43;100223.47;5063396;28;20377;-55
2022/08/16 00:16:01;;;;;;;11.43;8.18;;;;;;;22.18;57.45;100213.47;5063761;28;20033;-55
2022/08/16 00:18:27;;;;;;;12.35;8.73;;;;;;;22.01;57.93;100224.22;5061649;28;20088;-55
2022/08/16 00:20:52;;;;;;;14.52;8.98;;;;;;;22.18;57.62;100224.03;5078993;28;20070;-55
2022/08/16 00:23:18;;;;;;;11.32;8.75;;;;;;;22.19;57.51;100235.41;5066924;28;20021;-55
2022/08/16 00:25:44;;;;;;;13.27;8.80;;;;;;;22.16;57.39;100228.56;5063722;28;20024;-55
2022/08/16 00:28:10;;;;;;;13.25;9.25;;;;;;;22.09;57.63;100234.28;5062967;28;20248;-55
2022/08/16 00:30:37;;;;;;;10.85;8.60;;;;;;;21.96;57.62;100219.22;5084674;28;20028;-55
2022/08/16 00:33:03;;;;;;;9.90;8.32;;;;;;;22.05;57.79;100226.56;5071796;28;20078;-55
2022/08/16 00:35:32;;;;;;;11.20;8.70;;;;;;;21.86;57.90;100194.31;5055626;28;20021;-56
2022/08/16 00:37:58;;;;;;;11.02;7.85;;;;;;;22.11;58.40;100222.72;5071178;28;20027;-55
2022/08/16 00:40:37;;;;;;;11.07;8.68;;;;;;;21.80;58.50;100170.97;5070526;28;20029;-55
2022/08/16 00:43:14;;;;;;;11.02;8.00;;;;;;;22.06;59.04;100206.28;5051929;28;20083;-55
2022/08/16 00:45:58;;;;;;;11.18;8.73;;;;;;;22.09;58.78;100224.59;5054634;28;20017;-56
2022/08/16 00:48:24;;;;;;;11.85;8.35;;;;;;;22.03;58.80;100211.75;5051804;28;20036;-56
2022/08/16 00:50:49;;;;;;;12.48;8.07;;;;;;;22.04;58.77;100221.38;5057056;28;20033;-56
2022/08/16 00:53:16;;;;;;;11.45;8.45;;;;;;;22.01;58.75;100222.41;5058150;28;20032;-56
2022/08/16 00:55:47;;;;;;;14.68;8.30;;;;;;;22.00;58.96;100235.69;5059934;28;20376;-58
2022/08/16 00:58:15;;;;;;;10.52;8.77;;;;;;;21.93;59.25;100223.81;5062720;28;20036;-57
2022/08/16 01:00:42;;;;;;;11.82;8.65;;;;;;;21.94;58.70;100225.53;5061782;28;20036;-56
2022/08/16 01:03:11;;;;;;;15.32;8.60;;;;;;;21.63;58.81;100179.88;5060540;28;20261;-56
2022/08/16 01:05:37;;;;;;;9.65;8.60;;;;;;;21.91;59.12;100228.34;5060971;28;20082;-57
2022/08/16 01:08:05;;;;;;;13.43;9.13;;;;;;;21.76;58.94;100220.38;5060431;28;20348;-56
2022/08/16 01:10:32;;;;;;;9.93;8.18;;;;;;;21.86;59.17;100252.34;5060168;28;20041;-56
2022/08/16 01:13:03;;;;;;;9.82;8.48;;;;;;;21.83;59.42;100245.47;5060911;28;20214;-55
2022/08/16 01:15:30;;;;;;;11.93;8.32;;;;;;;21.74;59.92;100218.81;5060487;28;20070;-56
2022/08/16 01:17:57;;;;;;;11.98;8.18;;;;;;;21.76;59.85;100241.47;5060751;28;20209;-56
2022/08/16 01:20:26;;;;;;;12.70;8.18;;;;;;;21.53;59.76;100205.94;5064627;28;20017;-56
2022/08/16 01:23:15;;;;;;;10.90;8.85;;;;;;;21.48;60.11;100195.66;5058907;28;20043;-56
2022/08/16 01:25:46;;;;;;;10.45;8.45;;;;;;;21.75;60.05;100253.00;5057890;28;20032;-56
2022/08/16 01:28:17;;;;;;;9.73;8.05;;;;;;;21.44;59.96;100203.84;5062943;28;20317;-56
2022/08/16 01:30:48;;;;;;;11.55;7.68;;;;;;;21.66;59.08;100258.78;5061556;28;20046;-57
2022/08/16 01:33:13;;;;;;;11.10;8.23;;;;;;;21.58;59.19;100253.13;5061684;28;20028;-56
2022/08/16 01:35:47;;;;;;;12.77;8.30;;;;;;;21.59;59.32;100260.09;5049877;28;20263;-56
2022/08/16 01:38:35;;;;;;;13.10;8.07;;;;;;;21.59;59.78;100260.97;5060214;28;20360;-56
2022/08/16 01:41:05;;;;;;;9.00;7.93;;;;;;;21.28;59.25;100209.16;5054754;28;20079;-56
2022/08/16 01:43:32;;;;;;;10.70;7.78;;;;;;;21.55;59.14;100256.81;5043161;28;20033;-56
2022/08/16 01:46:01;;;;;;;15.85;8.02;;;;;;;21.35;58.86;100218.41;5056360;28;20045;-56
2022/08/16 01:48:30;;;;;;;11.75;7.82;;;;;;;21.43;59.37;100265.38;5063048;28;20021;-56
2022/08/16 01:50:57;;;;;;;10.73;7.70;;;;;;;21.19;59.80;100256.16;5059462;28;20079;-56
2022/08/16 01:53:23;;;;;;;13.20;7.72;;;;;;;21.08;60.36;100257.66;5063334;28;20152;-56
2022/08/16 01:55:49;;;;;;;9.10;7.75;;;;;;;20.94;60.93;100256.66;5058219;28;20041;-57
2022/08/16 01:58:16;;;;;;;9.48;6.85;;;;;;;20.80;60.94;100236.34;5061852;28;20098;-56
2022/08/16 02:00:43;;;;;;;12.82;7.30;;;;;;;21.02;60.80;100250.97;5083426;28;20028;-56
2022/08/16 02:03:08;;;;;;;9.75;7.93;;;;;;;20.93;60.91;100251.50;5071179;28;20043;-56
2022/08/16 02:05:35;;;;;;;12.10;7.43;;;;;;;20.79;61.06;100247.84;5074278;28;20024;-55
2022/08/16 02:08:02;;;;;;;13.88;7.07;;;;;;;20.80;61.28;100254.78;5065747;28;20025;-55
2022/08/16 02:10:27;;;;;;;10.73;7.75;;;;;;;20.74;61.55;100251.66;5064798;28;20043;-55
2022/08/16 02:12:53;;;;;;;11.50;7.07;;;;;;;20.73;61.25;100249.97;5083142;28;20084;-55
2022/08/16 02:15:23;;;;;;;8.52;7.57;;;;;;;20.70;61.65;100253.59;5076902;28;20173;-55
2022/08/16 02:17:48;;;;;;;12.98;7.57;;;;;;;20.74;61.50;100256.94;5049820;28;20371;-56
2022/08/16 02:20:16;;;;;;;8.48;7.15;;;;;;;20.68;61.36;100240.53;5052273;28;20025;-55
2022/08/16 02:22:41;;;;;;;10.85;7.93;;;;;;;20.76;61.54;100248.00;5047040;28;20088;-55
2022/08/16 02:25:11;;;;;;;10.45;7.38;;;;;;;20.73;61.48;100235.00;5062080;28;20051;-55
2022/08/16 02:27:43;;;;;;;11.57;7.57;;;;;;;20.73;61.85;100252.59;5063082;28;20036;-56
2022/08/16 02:30:13;;;;;;;14.07;7.20;;;;;;;20.84;61.23;100256.31;5047251;28;20036;-56
2022/08/16 02:32:43;;;;;;;10.25;7.55;;;;;;;20.88;61.34;100249.13;5044860;28;20041;-55
2022/08/16 02:35:09;;;;;;;11.07;7.38;;;;;;;20.91;61.12;100255.97;5065917;28;20040;-56
2022/08/16 02:37:35;;;;;;;13.18;7.45;;;;;;;20.90;61.31;100246.41;5060087;28;20099;-55
2022/08/16 02:40:00;;;;;;;11.15;7.32;;;;;;;20.86;61.40;100251.84;5056439;28;20068;-55
2022/08/16 02:42:26;;;;;;;10.82;7.22;;;;;;;20.83;61.94;100249.34;5062161;28;20132;-55
2022/08/16 02:44:52;;;;;;;10.23;7.85;;;;;;;20.82;61.85;100260.84;5065780;28;20028;-55
2022/08/16 02:47:18;;;;;;;11.35;6.97;;;;;;;20.75;61.87;100253.34;5061973;28;20396;-55
2022/08/16 02:49:43;;;;;;;12.88;8.00;;;;;;;20.70;62.20;100261.50;5066598;28;20096;-55
2022/08/16 02:52:10;;;;;;;8.73;7.47;;;;;;;20.70;61.86;100250.97;5075248;28;20031;-55
2022/08/16 02:54:36;;;;;;;10.80;7.85;;;;;;;20.73;62.16;100263.13;5062650;28;20054;-55
2022/08/16 02:57:03;;;;;;;10.35;7.43;;;;;;;20.91;61.58;100256.84;5048017;28;20033;-56
2022/08/16 02:59:29;;;;;;;10.80;7.55;;;;;;;20.83;61.66;100265.16;5042847;28;20213;-55
2022/08/16 03:01:55;;;;;;;8.65;7.55;;;;;;;20.63;62.24;100268.00;5044806;28;20049;-55
2022/08/16 03:04:22;;;;;;;14.82;8.60;;;;;;;20.34;61.70;100226.53;5061647;28;20029;-56
2022/08/16 03:06:48;;;;;;;12.35;7.60;;;;;;;20.78;61.73;100280.38;5062349;28;20025;-55
2022/08/16 03:09:13;;;;;;;12.63;8.05;;;;;;;20.84;61.67;100268.66;5078780;28;20052;-55
2022/08/16 03:11:40;;;;;;;13.68;8.00;;;;;;;20.74;62.04;100272.72;5068707;28;20036;-55
2022/08/16 03:14:06;;;;;;;12.27;8.45;;;;;;;20.76;61.92;100279.59;5061998;28;20068;-56
2022/08/16 03:16:31;;;;;;;9.68;7.75;;;;;;;20.64;62.18;100273.19;5063987;28;20041;-55
2022/08/16 03:18:57;;;;;;;9.18;7.63;;;;;;;20.78;62.02;100272.47;5079979;28;20024;-56
2022/08/16 03:21:23;;;;;;;12.70;7.75;;;;;;;20.83;61.89;100274.84;5062319;28;20051;-55
2022/08/16 03:23:48;;;;;;;8.88;6.95;;;;;;;20.90;61.85;100273.56;5062327;28;20325;-55
2022/08/16 03:26:14;;;;;;;11.15;7.85;;;;;;;20.78;62.07;100272.47;5054650;28;20030;-55
2022/08/16 03:28:40;;;;;;;10.77;7.60;;;;;;;20.83;61.85;100286.22;5059178;28;20033;-55
2022/08/16 03:31:07;;;;;;;11.88;7.40;;;;;;;21.05;61.33;100282.41;5052600;28;20017;-55
2022/08/16 03:33:34;;;;;;;13.88;8.15;;;;;;;20.86;61.68;100280.81;5060033;28;20021;-55
2022/08/16 03:36:00;;;;;;;9.93;7.65;;;;;;;20.91;61.53;100279.69;5073967;28;20024;-55
2022/08/16 03:38:28;;;;;;;11.32;8.45;;;;;;;20.82;61.66;100263.47;5075162;28;20090;-55
2022/08/16 03:40:55;;;;;;;10.23;7.82;;;;;;;21.04;61.47;100281.56;5072840;28;20029;-56
2022/08/16 03:43:22;;;;;;;11.95;7.85;;;;;;;21.02;61.68;100287.84;5064682;28;20040;-56
2022/08/16 03:45:56;;;;;;;8.77;7.90;;;;;;;20.72;61.54;100240.34;5058412;28;20021;-56
2022/08/16 03:48:25;;;;;;;10.85;7.75;;;;;;;20.74;61.50;100235.88;5082796;28;20024;-56
2022/08/16 03:50:51;;;;;;;11.27;8.00;;;;;;;21.01;61.74;100278.25;5064320;28;20372;-55
2022/08/16 03:53:16;;;;;;;13.65;8.30;;;;;;;21.09;61.09;100278.69;5057494;28;20033;-56
2022/08/16 03:55:42;;;;;;;12.25;7.30;;;;;;;21.15;60.65;100283.59;5062583;28;20096;-56
2022/08/16 03:58:08;;;;;;;8.25;6.90;;;;;;;21.31;60.78;100282.75;5071536;28;20029;-56
2022/08/16 04:00:33;;;;;;;14.43;8.10;;;;;;;21.40;60.87;100282.19;5060626;28;20068;-56
2022/08/16 04:03:06;;;;;;;11.77;7.90;;;;;;;21.10;60.43;100232.94;5060091;28;20096;-56
2022/08/16 04:05:36;;;;;;;13.20;7.72;;;;;;;21.21;60.59;100277.97;5057378;28;20210;-56
2022/08/16 04:08:03;;;;;;;10.30;7.83;;;;;;;21.22;60.98;100284.13;5065175;28;20024;-56
2022/08/16 04:10:29;;;;;;;12.15;7.25;;;;;;;21.50;60.34;100282.53;5063823;28;20218;-56
2022/08/16 04:12:56;;;;;;;12.00;7.47;;;;;;;21.10;61.04;100280.38;5058659;28;20040;-57
2022/08/16 04:15:24;;;;;;;15.30;7.65;;;;;;;21.47;60.38;100282.72;5055162;28;20040;-56
2022/08/16 04:17:51;;;;;;;10.80;8.00;;;;;;;21.47;60.44;100277.44;5065385;28;20032;-56
2022/08/16 04:20:16;;;;;;;10.13;7.68;;;;;;;21.60;60.22;100274.97;5057199;28;20191;-58
2022/08/16 04:22:42;;;;;;;12.52;7.72;;;;;;;21.69;59.53;100274.44;5053196;28;20059;-56
2022/08/16 04:25:09;;;;;;;10.50;7.30;;;;;;;21.89;59.64;100287.31;5064601;28;20041;-56
2022/08/16 04:27:39;;;;;;;13.30;6.97;;;;;;;21.91;59.64;100275.81;5053040;28;20017;-56
2022/08/16 04:30:10;;;;;;;8.65;6.80;;;;;;;21.91;59.57;100279.31;5049429;28;20026;-56
2022/08/16 04:32:36;;;;;;;8.90;6.45;;;;;;;21.93;59.12;100273.94;5055136;28;20056;-55
2022/08/16 04:35:04;;;;;;;12.43;7.18;;;;;;;22.04;59.31;100277.63;5064087;28;20025;-55
2022/08/16 04:37:29;;;;;;;12.15;7.38;;;;;;;22.03;59.25;100283.84;5065599;28;20032;-55
2022/08/16 04:39:55;;;;;;;10.60;7.60;;;;;;;21.89;59.53;100289.94;5064233;28;20041;-55
2022/08/16 04:42:21;;;;;;;11.63;7.45;;;;;;;22.11;58.84;100285.19;5064188;28;20033;-55
2022/08/16 04:44:46;;;;;;;10.35;7.30;;;;;;;22.12;58.90;100281.59;5071689;28;20017;-55
2022/08/16 04:47:12;;;;;;;9.82;7.45;;;;;;;22.23;59.03;100287.94;5051248;28;20340;-55
2022/08/16 04:49:38;;;;;;;9.57;6.95;;;;;;;22.34;58.08;100292.56;5061987;28;20033;-55
2022/08/16 04:52:04;;;;;;;11.70;6.85;;;;;;;22.45;58.11;100288.44;5057138;28;20359;-56
2022/08/16 04:54:30;;;;;;;10.07;7.40;;;;;;;22.35;58.50;100294.28;5060907;28;20021;-55
2022/08/16 04:56:55;;;;;;;14.02;6.88;;;;;;;22.57;57.89;100285.91;5061419;28;20032;-55
2022/08/16 04:59:21;;;;;;;9.15;6.93;;;;;;;22.55;57.04;100295.69;5062945;28;20209;-55
2022/08/16 05:01:46;;;;;;;11.02;6.97;;;;;;;22.71;57.55;100289.47;5060516;28;20025;-56
2022/08/16 05:04:12;;;;;;;12.73;7.28;;;;;;;22.85;57.63;100288.59;5061781;28;20310;-55
2022/08/16 05:06:38;;;;;;;9.55;6.95;;;;;;;22.92;57.52;100290.75;5063557;28;20021;-56
2022/08/16 05:09:04;;;;;;;14.10;7.03;;;;;;;23.11;56.66;100297.53;5062684;28;20260;-55
2022/08/16 05:11:30;;;;;;;11.57;7.45;;;;;;;23.27;56.01;100287.69;5062234;28;20028;-56
2022/08/16 05:13:59;;;;;;;10.15;6.18;;;;;;;23.57;55.12;100281.34;5062639;28;20100;-56
2022/08/16 05:16:27;;;;;;;7.75;6.00;;;;;;;23.81;55.03;100283.28;5063186;28;20044;-55
2022/08/16 05:18:55;;;;;;;10.93;6.50;;;;;;;23.34;53.51;100242.34;5062340;28;20037;-54
2022/08/16 05:21:21;;;;;;;11.57;6.00;;;;;;;23.67;53.36;100247.19;5051897;28;20025;-55
2022/08/16 05:23:49;;;;;;;8.07;6.22;;;;;;;24.03;53.18;100274.75;5063589;28;20144;-55
2022/08/16 05:26:14;;;;;;;10.25;5.95;;;;;;;24.14;53.22;100281.94;5060633;28;20032;-55
2022/08/16 05:28:40;;;;;;;12.10;6.45;;;;;;;24.05;52.62;100288.72;5061058;28;20214;-55
2022/08/16 05:31:05;;;;;;;17.27;7.30;;;;;;;24.12;53.37;100284.72;5057970;28;20048;-55
2022/08/16 05:33:31;;;;;;;12.48;6.57;;;;;;;23.99;53.16;100283.88;5051746;28;20029;-57
2022/08/16 05:35:57;;;;;;;10.35;6.70;;;;;;;24.27;52.63;100282.81;5061096;28;20252;-55
2022/08/16 05:38:29;;;;;;;9.60;5.95;;;;;;;24.47;52.02;100283.25;5061171;28;20040;-58
2022/08/16 05:40:56;;;;;;;22.08;7.07;;;;;;;24.42;52.50;100280.06;5060686;28;20035;-56
2022/08/16 05:43:22;;;;;;;15.30;6.68;;;;;;;24.55;52.53;100282.69;5063089;28;20039;-56
2022/08/16 05:45:49;;;;;;;12.05;6.28;;;;;;;24.50;52.74;100292.75;5061502;28;20034;-55
2022/08/16 05:48:15;;;;;;;11.35;6.13;;;;;;;24.54;52.30;100283.63;5063059;28;20028;-55
2022/08/16 05:50:40;;;;;;;8.65;5.50;;;;;;;24.59;52.20;100285.00;5073507;28;20091;-55
2022/08/16 05:53:06;;;;;;;12.35;6.63;;;;;;;24.70;52.41;100280.78;5067480;28;20031;-56
2022/08/16 05:55:32;;;;;;;11.13;5.85;;;;;;;24.63;52.19;100281.22;5063689;28;20088;-55
2022/08/16 05:57:57;;;;;;;6.55;5.70;;;;;;;24.73;51.41;100292.00;5066271;28;20223;-54
2022/08/16 06:00:24;;;;;;;9.10;5.72;;;;;;;24.78;51.17;100281.06;5046901;28;20026;-55
2022/08/16 06:02:50;;;;;;;10.07;5.00;;;;;;;24.66;49.95;100284.63;5073445;28;20199;-57
2022/08/16 06:05:16;;;;;;;9.40;5.18;;;;;;;24.68;49.90;100283.53;5057697;28;20021;-55
2022/08/16 06:07:42;;;;;;;8.18;6.18;;;;;;;24.85;50.42;100292.09;5064970;28;20055;-56
2022/08/16 06:10:08;;;;;;;10.15;5.68;;;;;;;24.78;49.94;100281.06;5068479;28;20052;-56
2022/08/16 06:12:34;;;;;;;9.90;5.50;;;;;;;24.75;50.38;100278.66;5062204;28;20029;-56
2022/08/16 06:15:03;;;;;;;7.78;5.65;;;;;;;24.71;50.07;100250.69;5064133;28;20025;-56
2022/08/16 06:17:29;;;;;;;9.13;5.13;;;;;;;25.04;50.23;100287.16;5061666;28;20013;-55
2022/08/16 06:19:55;;;;;;;6.25;4.88;;;;;;;25.16;50.02;100280.94;5063985;28;20355;-56
2022/08/16 06:22:20;;;;;;;8.57;5.10;;;;;;;25.24;49.90;100283.06;5062395;28;20021;-55
2022/08/16 06:24:46;;;;;;;9.45;5.60;;;;;;;25.25;48.52;100286.53;5060379;28;20040;-57
2022/08/16 06:27:12;;;;;;;10.07;5.65;;;;;;;25.04;48.74;100278.34;5064989;28;20417;-55
2022/08/16 06:29:38;;;;;;;9.00;5.30;;;;;;;25.25;48.22;100290.03;5072434;28;20032;-56
2022/08/16 06:32:04;;;;;;;8.32;5.40;;;;;;;25.15;48.00;100283.72;5065670;28;20068;-56
2022/08/16 06:34:30;;;;;;;8.45;5.28;;;;;;;25.31;48.61;100283.44;5059085;28;20024;-57
2022/08/16 06:36:55;;;;;;;12.88;5.13;;;;;;;25.20;48.35;100284.22;5055961;28;20341;-56
2022/08/16 06:39:22;;;;;;;10.10;5.30;;;;;;;25.36;47.73;100285.78;5051882;28;20041;-56
2022/08/16 06:41:47;;;;;;;8.10;5.40;;;;;;;25.30;48.19;100282.59;5058759;28;20344;-55
2022/08/16 06:44:13;;;;;;;8.45;4.97;;;;;;;25.47;48.50;100288.50;5060132;28;20029;-55
2022/08/16 06:46:39;;;;;;;6.32;4.88;;;;;;;25.58;47.65;100285.91;5061825;28;20032;-56
2022/08/16 06:49:07;;;;;;;7.38;5.07;;;;;;;25.39;47.41;100241.31;5062116;28;20025;-56
2022/08/16 06:51:35;;;;;;;6.68;4.93;;;;;;;25.73;47.15;100281.22;5060201;28;20032;-56
2022/08/16 06:54:02;;;;;;;8.02;5.13;;;;;;;25.88;47.58;100276.56;5052069;28;20087;-55
2022/08/16 06:56:28;;;;;;;8.27;5.13;;;;;;;25.89;48.25;100280.06;5059524;28;20028;-55
2022/08/16 06:58:54;;;;;;;7.35;5.63;;;;;;;25.99;48.03;100263.31;5062311;28;20024;-55
2022/08/16 07:01:20;;;;;;;8.00;5.00;;;;;;;25.97;46.07;100280.34;5060623;28;20383;-55
2022/08/16 07:03:47;;;;;;;6.43;4.55;;;;;;;26.06;46.51;100268.19;5061327;28;20292;-55
2022/08/16 07:06:13;;;;;;;10.52;4.95;;;;;;;25.92;44.98;100280.66;5062274;28;20084;-57
2022/08/16 07:08:41;;;;;;;7.80;4.30;;;;;;;26.05;44.95;100271.78;5059826;28;20029;-56
2022/08/16 07:11:08;;;;;;;8.20;4.93;;;;;;;26.18;46.05;100272.53;5061491;28;20025;-56
2022/08/16 07:13:34;;;;;;;6.53;4.57;;;;;;;26.26;44.99;100254.19;5061174;28;20024;-56
2022/08/16 07:16:02;;;;;;;7.18;4.65;;;;;;;26.39;44.33;100263.88;5062159;28;20091;-56
2022/08/16 07:18:28;;;;;;;9.35;4.80;;;;;;;26.50;44.32;100270.00;5063886;28;20148;-56
2022/08/16 07:20:56;;;;;;;9.35;5.13;;;;;;;26.57;44.44;100262.41;5040721;28;20256;-56
2022/08/16 07:23:22;;;;;;;5.70;4.20;;;;;;;26.59;43.21;100257.81;5065582;28;20033;-56
2022/08/16 07:25:47;;;;;;;10.57;4.53;;;;;;;26.63;42.79;100269.03;5062856;28;20043;-56
2022/08/16 07:28:16;;;;;;;5.55;3.90;;;;;;;26.33;42.42;100223.53;5065506;28;20021;-55
2022/08/16 07:30:42;;;;;;;4.20;3.65;;;;;;;26.77;42.62;100263.50;5065156;28;20314;-56
2022/08/16 07:33:09;;;;;;;6.55;4.13;;;;;;;26.82;41.71;100266.66;5067419;28;20047;-56
2022/08/16 07:35:35;;;;;;;8.68;4.00;;;;;;;26.87;41.73;100268.94;5062859;28;20024;-56
2022/08/16 07:38:02;;;;;;;6.45;3.80;;;;;;;26.77;42.41;100267.97;5063938;28;20242;-56
2022/08/16 07:40:27;;;;;;;6.65;3.78;;;;;;;26.86;42.54;100256.59;5065152;28;20025;-55
2022/08/16 07:42:53;;;;;;;4.82;3.97;;;;;;;27.04;42.20;100275.53;5064493;28;20028;-55
2022/08/16 07:45:19;;;;;;;6.13;3.92;;;;;;;26.99;41.83;100270.59;5065510;28;20025;-56
2022/08/16 07:47:45;;;;;;;12.20;4.63;;;;;;;27.08;41.25;100278.78;5064081;28;20092;-55
2022/08/16 07:50:13;;;;;;;6.93;4.60;;;;;;;27.11;42.35;100270.56;5063784;28;20025;-55
2022/08/16 07:52:40;;;;;;;6.18;3.72;;;;;;;27.10;42.80;100276.84;5065036;28;20306;-56
2022/08/16 07:55:07;;;;;;;5.07;3.38;;;;;;;27.22;41.62;100273.16;5064453;28;20330;-56
2022/08/16 07:57:33;;;;;;;10.65;4.15;;;;;;;27.30;41.58;100273.38;5063782;28;20032;-56
2022/08/16 07:59:59;;;;;;;10.73;4.22;;;;;;;27.28;41.89;100272.69;5062696;28;20032;-57
2022/08/16 08:02:26;;;;;;;8.45;4.07;;;;;;;27.36;41.52;100270.28;5061458;28;20016;-57
2022/08/16 08:04:51;;;;;;;6.53;3.85;;;;;;;27.11;41.09;100260.78;5064289;28;20048;-57
2022/08/16 08:07:17;;;;;;;5.22;3.85;;;;;;;27.32;42.00;100268.81;5063957;28;20028;-56
2022/08/16 08:09:43;;;;;;;6.85;4.13;;;;;;;27.28;40.98;100269.16;5062664;28;20029;-56
2022/08/16 08:12:09;;;;;;;6.35;4.07;;;;;;;27.38;41.29;100263.00;5061881;28;20028;-57
2022/08/16 08:14:35;;;;;;;6.75;4.18;;;;;;;27.46;41.34;100258.84;5063014;28;20021;-56
2022/08/16 08:17:03;;;;;;;6.53;4.10;;;;;;;27.57;41.32;100265.94;5063254;28;20318;-57
2022/08/16 08:19:29;;;;;;;6.15;4.38;;;;;;;27.59;41.46;100258.66;5064520;28;20100;-56
2022/08/16 08:21:54;;;;;;;6.38;4.78;;;;;;;27.71;41.56;100252.31;5062518;28;20025;-56
2022/08/16 08:24:21;;;;;;;5.68;4.05;;;;;;;27.48;41.07;100217.00;5062226;28;20248;-55
2022/08/16 08:26:47;;;;;;;7.20;4.10;;;;;;;27.51;40.61;100260.16;5064398;28;20056;-56
2022/08/16 08:29:13;;;;;;;6.43;4.45;;;;;;;27.64;40.93;100256.47;5061288;28;20021;-55
2022/08/16 08:31:41;;;;;;;4.65;4.18;;;;;;;27.69;40.45;100255.13;5064372;28;20033;-55
2022/08/16 08:34:06;;;;;;;6.55;4.15;;;;;;;27.70;41.09;100242.63;5064966;28;20092;-55
2022/08/16 08:36:35;;;;;;;6.18;4.38;;;;;;;27.94;41.16;100246.84;5062264;28;20070;-55
2022/08/16 08:39:03;;;;;;;7.50;4.25;;;;;;;27.76;41.33;100210.16;5061661;28;20048;-54
2022/08/16 08:41:29;;;;;;;7.95;4.40;;;;;;;28.13;41.10;100256.78;5061524;28;20213;-55
2022/08/16 08:43:56;;;;;;;4.43;4.03;;;;;;;28.21;41.33;100244.50;5062161;28;20043;-56
2022/08/16 08:46:23;;;;;;;5.30;4.18;;;;;;;27.99;40.11;100240.19;5057967;28;20084;-56
2022/08/16 08:48:50;;;;;;;8.18;4.22;;;;;;;28.03;40.33;100252.28;5060797;28;20112;-56
2022/08/16 08:51:17;;;;;;;6.32;4.20;;;;;;;27.60;40.93;100249.72;5060266;28;20028;-55
2022/08/16 08:53:44;;;;;;;4.57;4.13;;;;;;;27.92;41.13;100240.81;5061816;28;20021;-56
2022/08/16 08:56:12;;;;;;;7.47;4.53;;;;;;;28.12;40.53;100241.78;5063437;28;20090;-56
2022/08/16 08:58:38;;;;;;;10.48;5.20;;;;;;;27.98;39.94;100243.81;5064170;28;20083;-55
2022/08/16 09:01:06;;;;;;;6.50;4.00;;;;;;;28.33;40.28;100237.28;5064435;28;20025;-56
2022/08/16 09:03:36;;;;;;;6.60;4.47;;;;;;;28.51;40.54;100239.28;5065103;28;20067;-55
2022/08/16 09:06:03;;;;;;;5.40;4.45;;;;;;;28.57;39.98;100236.06;5062332;28;20031;-55
2022/08/16 09:08:30;;;;;;;6.70;4.47;;;;;;;28.45;40.13;100242.47;5056240;28;20253;-56
2022/08/16 09:10:57;;;;;;;5.90;4.10;;;;;;;28.49;39.70;100249.22;5062870;28;20090;-55
2022/08/16 09:13:24;;;;;;;8.15;4.97;;;;;;;28.68;40.17;100243.16;5060058;28;20044;-55
2022/08/16 09:15:52;;;;;;;9.18;4.32;;;;;;;28.53;39.00;100231.97;5056503;28;20032;-55
2022/08/16 09:18:17;;;;;;;8.85;4.22;;;;;;;28.39;40.02;100234.06;5061057;28;20099;-56
2022/08/16 09:20:45;;;;;;;7.97;4.10;;;;;;;28.65;38.42;100241.59;5060522;28;20025;-54
2022/08/16 09:23:11;;;;;;;5.82;4.53;;;;;;;28.71;38.89;100238.38;5051646;28;20048;-55
2022/08/16 09:25:38;;;;;;;8.98;4.10;;;;;;;28.73;38.93;100236.44;5052385;28;20041;-55
2022/08/16 09:28:04;;;;;;;8.00;4.68;;;;;;;28.60;39.71;100227.78;5052959;28;20094;-55
2022/08/16 09:30:33;;;;;;;7.22;4.28;;;;;;;28.78;39.30;100229.84;5055458;28;20032;-55
2022/08/16 09:32:58;;;;;;;8.35;4.20;;;;;;;28.72;39.30;100241.91;5050225;28;20070;-55
2022/08/16 09:35:25;;;;;;;7.57;4.30;;;;;;;28.25;39.91;100237.09;5059506;28;20221;-55
2022/08/16 09:37:52;;;;;;;7.03;4.50;;;;;;;28.40;40.09;100234.88;5053865;28;20657;-55
2022/08/16 09:40:18;;;;;;;4.72;4.13;;;;;;;28.33;39.27;100231.94;5062581;28;20035;-55
2022/08/16 09:42:43;;;;;;;5.93;3.92;;;;;;;28.46;38.81;100230.84;5063089;28;20280;-56
2022/08/16 09:45:10;;;;;;;6.50;4.57;;;;;;;28.50;39.20;100227.75;5057226;28;20033;-55
2022/08/16 09:47:39;;;;;;;5.07;3.95;;;;;;;28.40;39.80;100227.75;5063495;28;20050;-54
2022/08/16 09:50:08;;;;;;;8.27;4.13;;;;;;;28.34;39.11;100187.47;5061989;28;20225;-55
2022/08/16 09:52:36;;;;;;;8.48;4.30;;;;;;;28.71;39.74;100230.38;5062935;28;20256;-54
2022/08/16 09:55:08;;;;;;;6.35;4.00;;;;;;;28.84;39.43;100227.44;5064977;28;20032;-55
2022/08/16 09:57:35;;;;;;;5.93;4.20;;;;;;;28.90;38.95;100223.38;5067919;28;20282;-55
2022/08/16 10:00:06;;;;;;;10.55;4.45;;;;;;;28.63;38.44;100222.22;5053987;28;20025;-56
2022/08/16 10:02:31;;;;;;;5.90;4.13;;;;;;;28.84;38.65;100223.97;5057367;28;20256;-55
2022/08/16 10:04:57;;;;;;;9.23;3.63;;;;;;;29.00;38.53;100228.75;5060460;28;20070;-55
2022/08/16 10:07:27;;;;;;;6.32;4.20;;;;;;;28.87;38.51;100223.69;5056014;28;20049;-55
2022/08/16 10:09:53;;;;;;;8.30;4.28;;;;;;;28.77;37.91;100213.00;5057436;28;20194;-55
2022/08/16 10:15:04;;;;;;;5.75;4.13;;;;;;;28.77;39.33;100214.81;5050894;28;20096;-54
2022/08/16 10:17:31;;;;;;;6.75;4.03;;;;;;;28.42;39.33;100219.63;5056205;28;20033;-54
2022/08/16 10:19:57;;;;;;;5.03;4.43;;;;;;;28.38;39.08;100216.38;5049701;28;20036;-54
2022/08/16 10:22:22;;;;;;;6.20;3.95;;;;;;;28.52;38.80;100222.31;5052356;28;20037;-55
2022/08/16 10:24:48;;;;;;;9.85;4.10;;;;;;;28.61;38.79;100218.81;5061108;28;20082;-55
2022/08/16 10:27:14;;;;;;;5.45;4.30;;;;;;;28.46;38.41;100205.06;5060485;28;20047;-55
2022/08/16 10:29:39;;;;;;;6.30;4.32;;;;;;;28.75;39.10;100209.63;5055712;28;20067;-54
2022/08/16 10:32:05;;;;;;;5.45;4.35;;;;;;;28.87;38.86;100215.69;5050229;28;20067;-54
2022/08/16 10:34:31;;;;;;;6.82;4.20;;;;;;;28.84;39.57;100203.47;5051257;28;20493;-55
2022/08/16 10:36:57;;;;;;;7.47;4.13;;;;;;;28.65;38.23;100214.09;5051157;28;20029;-55
2022/08/16 10:39:23;;;;;;;7.13;4.07;;;;;;;28.71;39.12;100210.88;5051004;28;20057;-55
2022/08/16 10:42:08;;;;;;;5.53;4.10;;;;;;;29.03;38.60;100207.97;5052822;28;20139;-55
2022/08/16 10:44:34;;;;;;;5.78;3.70;;;;;;;29.10;38.21;100202.91;5055473;28;20041;-55
2022/08/16 10:46:59;;;;;;;6.70;3.85;;;;;;;28.62;37.67;100209.88;5057235;28;20029;-55
2022/08/16 10:49:25;;;;;;;7.72;4.40;;;;;;;28.95;37.85;100199.81;5061127;28;20044;-55
2022/08/16 10:51:54;;;;;;;4.50;3.70;;;;;;;28.98;38.29;100204.03;5065039;28;20029;-55
2022/08/16 10:54:21;;;;;;;9.20;4.95;;;;;;;28.94;38.34;100208.81;5051684;28;20032;-56
2022/08/16 10:56:47;;;;;;;5.38;4.85;;;;;;;28.77;37.83;100207.66;5065110;28;20225;-55
2022/08/16 11:01:58;;;;;;;6.82;4.18;;;;;;;28.50;38.57;100206.44;5060720;28;20049;-55
2022/08/16 11:04:25;;;;;;;8.48;4.45;;;;;;;28.39;37.96;100194.09;5059787;28;20040;-54
2022/08/16 11:06:51;;;;;;;5.18;3.78;;;;;;;28.61;37.81;100197.50;5061620;28;20036;-55
2022/08/16 11:09:16;;;;;;;7.30;4.45;;;;;;;28.63;38.26;100200.06;5062768;28;20108;-55
2022/08/16 11:11:42;;;;;;;6.43;4.53;;;;;;;28.48;38.54;100199.59;5057225;28;20013;-56
2022/08/16 11:14:08;;;;;;;5.53;4.57;;;;;;;28.32;38.85;100195.59;5060552;28;20044;-57
2022/08/16 11:16:34;;;;;;;7.55;4.78;;;;;;;28.29;38.96;100197.69;5059689;28;20037;-56
2022/08/16 11:19:00;;;;;;;4.70;4.28;;;;;;;28.11;39.04;100198.31;5061010;28;20032;-56
2022/08/16 11:21:25;;;;;;;6.10;4.30;;;;;;;28.26;39.26;100196.13;5061192;28;20025;-56
2022/08/16 11:23:52;;;;;;;6.00;4.28;;;;;;;28.15;39.16;100177.59;5063966;28;20033;-56
2022/08/16 11:26:18;;;;;;;6.13;4.07;;;;;;;28.29;38.98;100176.38;5063650;28;20301;-55